sensor_id;sensor_type;location;lat;lon;timestamp;P1;durP1;ratioP1;P2;durP2;ratioP2
73264;SDS011;61493;51.008;14.088;2022-10-15T00:00:32;11.25;;;6.95;;
73264;SDS011;61493;51.008;14.088;2022-10-15T00:03:02;10.88;;;6.95;;
73264;SDS011;61493;51.008;14.088;2022-10-15T00:05:27;15.77;;;7.50;;
73264;SDS011;61493;51.008;14.088;2022-10-15T00:07:52;13.00;;;7.22;;
73264;SDS011;61493;51.008;14.088;2022-10-15T00:10:21;10.77;;;6.80;;
73264;SDS011;61493;51.008;14.088;2022-10-15T00:12:47;11.48;;;6.95;;
73264;SDS011;61493;51.008;14.088;2022-10-15T00:15:12;15.85;;;8.15;;
73264;SDS011;61493;51.008;14.088;2022-10-15T00:17:38;11.02;;;6.88;;
73264;SDS011;61493;51.008;14.088;2022-10-15T00:20:05;13.43;;;7.93;;
73264;SDS011;61493;51.008;14.088;2022-10-15T00:22:32;17.48;;;7.45;;
73264;SDS011;61493;51.008;14.088;2022-10-15T00:24:57;12.40;;;7.55;;
73264;SDS011;61493;51.008;14.088;2022-10-15T00:27:23;11.90;;;6.60;;
73264;SDS011;61493;51.008;14.088;2022-10-15T00:29:48;13.02;;;6.45;;
73264;SDS011;61493;51.008;14.088;2022-10-15T00:32:13;12.32;;;7.07;;
73264;SDS011;61493;51.008;14.088;2022-10-15T00:34:39;17.02;;;7.20;;
73264;SDS011;61493;51.008;14.088;2022-10-15T00:37:05;13.90;;;7.07;;
73264;SDS011;61493;51.008;14.088;2022-10-15T00:39:30;12.50;;;6.78;;
73264;SDS011;61493;51.008;14.088;2022-10-15T00:41:55;15.45;;;7.68;;
73264;SDS011;61493;51.008;14.088;2022-10-15T00:46:50;14.18;;;8.25;;
73264;SDS011;61493;51.008;14.088;2022-10-15T00:52:15;18.23;;;8.13;;
73264;SDS011;61493;51.008;14.088;2022-10-15T00:54:44;27.55;;;15.77;;
73264;SDS011;61493;51.008;14.088;2022-10-15T00:57:13;15.93;;;9.15;;
73264;SDS011;61493;51.008;14.088;2022-10-15T00:59:42;18.33;;;11.13;;
73264;SDS011;61493;51.008;14.088;2022-10-15T01:02:30;15.43;;;9.38;;
73264;SDS011;61493;51.008;14.088;2022-10-15T01:04:55;16.48;;;9.35;;
73264;SDS011;61493;51.008;14.088;2022-10-15T01:07:20;16.00;;;8.73;;
73264;SDS011;61493;51.008;14.088;2022-10-15T01:09:46;16.08;;;8.55;;
73264;SDS011;61493;51.008;14.088;2022-10-15T01:12:27;22.80;;;9.45;;
73264;SDS011;61493;51.008;14.088;2022-10-15T01:32:37;16.30;;;9.43;;
73264;SDS011;61493;51.008;14.088;2022-10-15T01:43:47;18.48;;;9.55;;
73264;SDS011;61493;51.008;14.088;2022-10-15T01:46:23;16.05;;;9.13;;
73264;SDS011;61493;51.008;14.088;2022-10-15T01:51:20;20.92;;;10.40;;
73264;SDS011;61493;51.008;14.088;2022-10-15T01:53:49;14.15;;;9.85;;
73264;SDS011;61493;51.008;14.088;2022-10-15T01:56:16;23.20;;;11.15;;
73264;SDS011;61493;51.008;14.088;2022-10-15T01:58:45;18.50;;;9.07;;
73264;SDS011;61493;51.008;14.088;2022-10-15T02:01:14;21.60;;;11.10;;
73264;SDS011;61493;51.008;14.088;2022-10-15T02:03:52;19.20;;;9.65;;
73264;SDS011;61493;51.008;14.088;2022-10-15T02:11:38;18.25;;;10.35;;
73264;SDS011;61493;51.008;14.088;2022-10-15T02:14:18;17.52;;;9.38;;
73264;SDS011;61493;51.008;14.088;2022-10-15T02:17:07;16.17;;;10.13;;
73264;SDS011;61493;51.008;14.088;2022-10-15T02:22:09;17.35;;;10.63;;
73264;SDS011;61493;51.008;14.088;2022-10-15T02:25:00;19.60;;;10.02;;
73264;SDS011;61493;51.008;14.088;2022-10-15T02:27:32;19.08;;;10.65;;
73264;SDS011;61493;51.008;14.088;2022-10-15T02:30:00;16.90;;;10.27;;
73264;SDS011;61493;51.008;14.088;2022-10-15T02:32:29;19.65;;;11.15;;
73264;SDS011;61493;51.008;14.088;2022-10-15T02:34:56;21.55;;;11.15;;
73264;SDS011;61493;51.008;14.088;2022-10-15T02:37:24;18.15;;;10.65;;
73264;SDS011;61493;51.008;14.088;2022-10-15T02:39:51;20.88;;;10.55;;
73264;SDS011;61493;51.008;14.088;2022-10-15T02:42:17;17.83;;;10.23;;
73264;SDS011;61493;51.008;14.088;2022-10-15T02:44:43;17.02;;;9.43;;
73264;SDS011;61493;51.008;14.088;2022-10-15T02:47:09;18.95;;;9.93;;
73264;SDS011;61493;51.008;14.088;2022-10-15T02:49:35;14.25;;;8.90;;
73264;SDS011;61493;51.008;14.088;2022-10-15T02:52:00;16.50;;;9.48;;
73264;SDS011;61493;51.008;14.088;2022-10-15T02:54:26;17.00;;;9.95;;
73264;SDS011;61493;51.008;14.088;2022-10-15T02:56:51;24.55;;;14.52;;
73264;SDS011;61493;51.008;14.088;2022-10-15T02:59:16;20.10;;;11.32;;
73264;SDS011;61493;51.008;14.088;2022-10-15T03:01:43;17.85;;;11.02;;
73264;SDS011;61493;51.008;14.088;2022-10-15T03:04:09;15.18;;;8.50;;
73264;SDS011;61493;51.008;14.088;2022-10-15T03:06:34;15.52;;;8.63;;
73264;SDS011;61493;51.008;14.088;2022-10-15T03:08:59;18.98;;;9.32;;
73264;SDS011;61493;51.008;14.088;2022-10-15T03:11:25;14.90;;;9.63;;
73264;SDS011;61493;51.008;14.088;2022-10-15T03:13:50;16.10;;;9.68;;
73264;SDS011;61493;51.008;14.088;2022-10-15T03:16:15;18.05;;;9.50;;
73264;SDS011;61493;51.008;14.088;2022-10-15T03:18:41;13.70;;;9.27;;
73264;SDS011;61493;51.008;14.088;2022-10-15T03:21:06;16.27;;;10.15;;
73264;SDS011;61493;51.008;14.088;2022-10-15T03:23:31;13.15;;;7.80;;
73264;SDS011;61493;51.008;14.088;2022-10-15T03:25:57;17.73;;;9.27;;
73264;SDS011;61493;51.008;14.088;2022-10-15T03:28:22;16.30;;;9.95;;
73264;SDS011;61493;51.008;14.088;2022-10-15T03:30:47;17.60;;;9.23;;
73264;SDS011;61493;51.008;14.088;2022-10-15T03:33:13;14.65;;;8.77;;
73264;SDS011;61493;51.008;14.088;2022-10-15T03:35:38;14.18;;;8.98;;
73264;SDS011;61493;51.008;14.088;2022-10-15T03:38:05;14.65;;;9.40;;
73264;SDS011;61493;51.008;14.088;2022-10-15T03:40:31;18.08;;;9.68;;
73264;SDS011;61493;51.008;14.088;2022-10-15T03:42:56;16.83;;;10.52;;
73264;SDS011;61493;51.008;14.088;2022-10-15T03:45:22;14.73;;;9.40;;
73264;SDS011;61493;51.008;14.088;2022-10-15T03:47:48;21.23;;;10.07;;
73264;SDS011;61493;51.008;14.088;2022-10-15T03:50:13;15.13;;;9.65;;
73264;SDS011;61493;51.008;14.088;2022-10-15T03:52:39;16.30;;;9.38;;
73264;SDS011;61493;51.008;14.088;2022-10-15T03:55:05;18.27;;;9.18;;
73264;SDS011;61493;51.008;14.088;2022-10-15T03:57:30;15.30;;;9.75;;
73264;SDS011;61493;51.008;14.088;2022-10-15T03:59:56;15.25;;;9.05;;
73264;SDS011;61493;51.008;14.088;2022-10-15T04:02:21;17.23;;;10.40;;
73264;SDS011;61493;51.008;14.088;2022-10-15T04:04:47;18.92;;;9.13;;
73264;SDS011;61493;51.008;14.088;2022-10-15T04:07:15;16.02;;;10.57;;
73264;SDS011;61493;51.008;14.088;2022-10-15T04:09:41;15.52;;;9.68;;
73264;SDS011;61493;51.008;14.088;2022-10-15T04:12:06;15.25;;;9.63;;
73264;SDS011;61493;51.008;14.088;2022-10-15T04:14:31;15.38;;;8.82;;
73264;SDS011;61493;51.008;14.088;2022-10-15T04:16:57;12.85;;;8.20;;
73264;SDS011;61493;51.008;14.088;2022-10-15T04:19:23;18.02;;;9.57;;
73264;SDS011;61493;51.008;14.088;2022-10-15T04:21:48;20.08;;;9.30;;
73264;SDS011;61493;51.008;14.088;2022-10-15T04:24:14;14.77;;;9.68;;
73264;SDS011;61493;51.008;14.088;2022-10-15T04:26:39;15.73;;;9.07;;
73264;SDS011;61493;51.008;14.088;2022-10-15T04:29:04;17.50;;;9.30;;
73264;SDS011;61493;51.008;14.088;2022-10-15T04:31:29;13.52;;;9.02;;
73264;SDS011;61493;51.008;14.088;2022-10-15T04:33:55;20.40;;;10.95;;
73264;SDS011;61493;51.008;14.088;2022-10-15T04:36:20;17.75;;;10.25;;
73264;SDS011;61493;51.008;14.088;2022-10-15T04:38:48;18.13;;;9.73;;
73264;SDS011;61493;51.008;14.088;2022-10-15T04:41:14;18.70;;;10.13;;
73264;SDS011;61493;51.008;14.088;2022-10-15T04:43:39;16.85;;;9.80;;
73264;SDS011;61493;51.008;14.088;2022-10-15T04:46:06;17.63;;;10.25;;
73264;SDS011;61493;51.008;14.088;2022-10-15T04:48:33;17.83;;;10.52;;
73264;SDS011;61493;51.008;14.088;2022-10-15T04:51:11;19.13;;;9.40;;
73264;SDS011;61493;51.008;14.088;2022-10-15T04:53:38;18.35;;;9.88;;
73264;SDS011;61493;51.008;14.088;2022-10-15T04:56:05;21.10;;;9.93;;
73264;SDS011;61493;51.008;14.088;2022-10-15T04:58:33;14.10;;;8.80;;
73264;SDS011;61493;51.008;14.088;2022-10-15T05:01:00;18.27;;;11.05;;
73264;SDS011;61493;51.008;14.088;2022-10-15T05:03:26;17.58;;;9.80;;
73264;SDS011;61493;51.008;14.088;2022-10-15T05:05:52;19.80;;;10.68;;
73264;SDS011;61493;51.008;14.088;2022-10-15T05:08:17;17.58;;;9.75;;
73264;SDS011;61493;51.008;14.088;2022-10-15T05:10:42;21.30;;;12.13;;
73264;SDS011;61493;51.008;14.088;2022-10-15T05:13:10;18.67;;;10.75;;
73264;SDS011;61493;51.008;14.088;2022-10-15T05:15:35;17.85;;;10.93;;
73264;SDS011;61493;51.008;14.088;2022-10-15T05:18:01;18.67;;;11.38;;
73264;SDS011;61493;51.008;14.088;2022-10-15T05:20:26;30.42;;;11.05;;
73264;SDS011;61493;51.008;14.088;2022-10-15T05:22:52;21.00;;;12.57;;
73264;SDS011;61493;51.008;14.088;2022-10-15T05:25:17;22.52;;;13.32;;
73264;SDS011;61493;51.008;14.088;2022-10-15T05:27:43;18.42;;;10.55;;
73264;SDS011;61493;51.008;14.088;2022-10-15T05:30:08;16.73;;;10.75;;
73264;SDS011;61493;51.008;14.088;2022-10-15T05:32:34;19.17;;;10.15;;
73264;SDS011;61493;51.008;14.088;2022-10-15T05:34:59;19.10;;;11.25;;
73264;SDS011;61493;51.008;14.088;2022-10-15T05:37:24;21.63;;;10.52;;
73264;SDS011;61493;51.008;14.088;2022-10-15T05:39:49;21.77;;;11.68;;
73264;SDS011;61493;51.008;14.088;2022-10-15T05:42:15;17.73;;;10.50;;
73264;SDS011;61493;51.008;14.088;2022-10-15T05:44:40;19.85;;;11.70;;
73264;SDS011;61493;51.008;14.088;2022-10-15T05:47:05;18.30;;;11.43;;
73264;SDS011;61493;51.008;14.088;2022-10-15T05:49:35;19.35;;;11.25;;
73264;SDS011;61493;51.008;14.088;2022-10-15T05:52:01;19.40;;;10.90;;
73264;SDS011;61493;51.008;14.088;2022-10-15T05:54:26;17.85;;;11.32;;
73264;SDS011;61493;51.008;14.088;2022-10-15T05:56:51;20.45;;;11.82;;
73264;SDS011;61493;51.008;14.088;2022-10-15T05:59:16;20.17;;;10.98;;
73264;SDS011;61493;51.008;14.088;2022-10-15T06:01:42;18.83;;;11.65;;
73264;SDS011;61493;51.008;14.088;2022-10-15T06:04:07;19.33;;;10.85;;
73264;SDS011;61493;51.008;14.088;2022-10-15T06:06:33;19.20;;;10.90;;
73264;SDS011;61493;51.008;14.088;2022-10-15T06:08:58;18.55;;;11.18;;
73264;SDS011;61493;51.008;14.088;2022-10-15T06:11:25;20.38;;;11.02;;
73264;SDS011;61493;51.008;14.088;2022-10-15T06:13:51;19.20;;;11.90;;
73264;SDS011;61493;51.008;14.088;2022-10-15T06:16:16;18.75;;;10.88;;
73264;SDS011;61493;51.008;14.088;2022-10-15T06:18:42;17.35;;;10.13;;
73264;SDS011;61493;51.008;14.088;2022-10-15T06:21:08;21.42;;;10.73;;
73264;SDS011;61493;51.008;14.088;2022-10-15T06:23:38;17.58;;;10.10;;
73264;SDS011;61493;51.008;14.088;2022-10-15T06:26:04;21.05;;;11.85;;
73264;SDS011;61493;51.008;14.088;2022-10-15T06:28:32;17.35;;;10.68;;
73264;SDS011;61493;51.008;14.088;2022-10-15T06:30:58;15.77;;;10.65;;
73264;SDS011;61493;51.008;14.088;2022-10-15T06:33:24;18.23;;;11.00;;
73264;SDS011;61493;51.008;14.088;2022-10-15T06:35:49;19.02;;;10.02;;
73264;SDS011;61493;51.008;14.088;2022-10-15T06:38:15;14.00;;;8.85;;
73264;SDS011;61493;51.008;14.088;2022-10-15T06:40:40;17.65;;;9.90;;
73264;SDS011;61493;51.008;14.088;2022-10-15T06:43:06;18.67;;;10.15;;
73264;SDS011;61493;51.008;14.088;2022-10-15T06:45:39;14.52;;;9.70;;
73264;SDS011;61493;51.008;14.088;2022-10-15T06:48:09;17.17;;;8.98;;
73264;SDS011;61493;51.008;14.088;2022-10-15T06:50:35;13.63;;;9.07;;
73264;SDS011;61493;51.008;14.088;2022-10-15T06:53:02;14.48;;;8.98;;
73264;SDS011;61493;51.008;14.088;2022-10-15T06:55:28;13.05;;;8.07;;
73264;SDS011;61493;51.008;14.088;2022-10-15T06:57:55;14.13;;;8.25;;
73264;SDS011;61493;51.008;14.088;2022-10-15T07:00:21;12.80;;;7.60;;
73264;SDS011;61493;51.008;14.088;2022-10-15T07:02:47;13.73;;;7.90;;
73264;SDS011;61493;51.008;14.088;2022-10-15T07:05:14;12.40;;;7.47;;
73264;SDS011;61493;51.008;14.088;2022-10-15T07:07:39;10.35;;;6.57;;
73264;SDS011;61493;51.008;14.088;2022-10-15T07:10:05;10.52;;;6.72;;
73264;SDS011;61493;51.008;14.088;2022-10-15T07:12:30;11.02;;;6.38;;
73264;SDS011;61493;51.008;14.088;2022-10-15T07:14:56;12.68;;;6.97;;
73264;SDS011;61493;51.008;14.088;2022-10-15T07:17:21;10.57;;;6.63;;
73264;SDS011;61493;51.008;14.088;2022-10-15T07:19:46;9.57;;;6.00;;
73264;SDS011;61493;51.008;14.088;2022-10-15T07:22:12;8.30;;;5.75;;
73264;SDS011;61493;51.008;14.088;2022-10-15T07:24:37;11.48;;;6.57;;
73264;SDS011;61493;51.008;14.088;2022-10-15T07:27:02;8.80;;;5.95;;
73264;SDS011;61493;51.008;14.088;2022-10-15T07:29:28;8.50;;;5.57;;
73264;SDS011;61493;51.008;14.088;2022-10-15T07:31:55;9.80;;;6.25;;
73264;SDS011;61493;51.008;14.088;2022-10-15T07:34:21;9.38;;;5.75;;
73264;SDS011;61493;51.008;14.088;2022-10-15T07:36:47;9.18;;;5.75;;
73264;SDS011;61493;51.008;14.088;2022-10-15T07:39:12;9.10;;;6.20;;
73264;SDS011;61493;51.008;14.088;2022-10-15T07:41:40;9.13;;;6.07;;
73264;SDS011;61493;51.008;14.088;2022-10-15T07:44:05;10.65;;;7.10;;
73264;SDS011;61493;51.008;14.088;2022-10-15T07:46:31;12.10;;;6.47;;
73264;SDS011;61493;51.008;14.088;2022-10-15T07:48:56;10.05;;;6.25;;
73264;SDS011;61493;51.008;14.088;2022-10-15T07:51:22;9.68;;;5.88;;
73264;SDS011;61493;51.008;14.088;2022-10-15T07:53:47;10.95;;;5.53;;
73264;SDS011;61493;51.008;14.088;2022-10-15T07:56:13;10.15;;;5.78;;
73264;SDS011;61493;51.008;14.088;2022-10-15T07:58:39;10.27;;;6.35;;
73264;SDS011;61493;51.008;14.088;2022-10-15T08:01:06;8.27;;;6.28;;
73264;SDS011;61493;51.008;14.088;2022-10-15T08:03:32;7.85;;;5.15;;
73264;SDS011;61493;51.008;14.088;2022-10-15T08:05:58;8.25;;;5.00;;
73264;SDS011;61493;51.008;14.088;2022-10-15T08:08:25;8.20;;;5.68;;
73264;SDS011;61493;51.008;14.088;2022-10-15T08:10:50;7.63;;;5.15;;
73264;SDS011;61493;51.008;14.088;2022-10-15T08:13:16;7.68;;;5.22;;
73264;SDS011;61493;51.008;14.088;2022-10-15T08:15:41;8.93;;;5.60;;
73264;SDS011;61493;51.008;14.088;2022-10-15T08:18:07;8.63;;;5.47;;
73264;SDS011;61493;51.008;14.088;2022-10-15T08:20:34;8.65;;;5.75;;
73264;SDS011;61493;51.008;14.088;2022-10-15T08:23:00;11.98;;;5.43;;
73264;SDS011;61493;51.008;14.088;2022-10-15T08:25:26;9.25;;;5.72;;
73264;SDS011;61493;51.008;14.088;2022-10-15T08:27:52;9.43;;;6.13;;
73264;SDS011;61493;51.008;14.088;2022-10-15T08:30:18;9.77;;;6.03;;
73264;SDS011;61493;51.008;14.088;2022-10-15T08:32:43;10.45;;;5.97;;
73264;SDS011;61493;51.008;14.088;2022-10-15T08:35:08;10.65;;;6.88;;
73264;SDS011;61493;51.008;14.088;2022-10-15T08:37:34;9.18;;;5.85;;
73264;SDS011;61493;51.008;14.088;2022-10-15T08:39:59;8.38;;;5.63;;
73264;SDS011;61493;51.008;14.088;2022-10-15T08:42:30;11.27;;;6.03;;
73264;SDS011;61493;51.008;14.088;2022-10-15T08:45:00;20.58;;;7.18;;
73264;SDS011;61493;51.008;14.088;2022-10-15T08:47:30;9.77;;;6.63;;
73264;SDS011;61493;51.008;14.088;2022-10-15T08:53:02;10.55;;;6.20;;
73264;SDS011;61493;51.008;14.088;2022-10-15T08:55:28;9.50;;;5.78;;
73264;SDS011;61493;51.008;14.088;2022-10-15T09:00:53;12.80;;;7.80;;
73264;SDS011;61493;51.008;14.088;2022-10-15T09:11:23;8.98;;;6.05;;
73264;SDS011;61493;51.008;14.088;2022-10-15T09:14:00;10.60;;;6.40;;
73264;SDS011;61493;51.008;14.088;2022-10-15T09:16:30;7.63;;;5.15;;
73264;SDS011;61493;51.008;14.088;2022-10-15T09:18:59;10.30;;;6.70;;
73264;SDS011;61493;51.008;14.088;2022-10-15T09:21:28;10.60;;;6.32;;
73264;SDS011;61493;51.008;14.088;2022-10-15T09:24:00;8.25;;;5.30;;
73264;SDS011;61493;51.008;14.088;2022-10-15T09:26:28;10.35;;;6.10;;
73264;SDS011;61493;51.008;14.088;2022-10-15T09:37:20;8.43;;;5.50;;
73264;SDS011;61493;51.008;14.088;2022-10-15T09:40:27;7.80;;;5.30;;
73264;SDS011;61493;51.008;14.088;2022-10-15T09:43:03;8.18;;;5.43;;
73264;SDS011;61493;51.008;14.088;2022-10-15T09:45:30;8.27;;;5.68;;
73264;SDS011;61493;51.008;14.088;2022-10-15T09:47:56;8.45;;;5.45;;
73264;SDS011;61493;51.008;14.088;2022-10-15T09:50:25;6.72;;;4.95;;
73264;SDS011;61493;51.008;14.088;2022-10-15T09:53:04;7.40;;;5.07;;
73264;SDS011;61493;51.008;14.088;2022-10-15T09:58:17;7.10;;;4.70;;
73264;SDS011;61493;51.008;14.088;2022-10-15T10:00:55;6.35;;;4.07;;
73264;SDS011;61493;51.008;14.088;2022-10-15T10:03:26;7.22;;;4.45;;
73264;SDS011;61493;51.008;14.088;2022-10-15T10:06:05;6.78;;;4.60;;
73264;SDS011;61493;51.008;14.088;2022-10-15T10:08:34;7.38;;;4.80;;
73264;SDS011;61493;51.008;14.088;2022-10-15T10:11:03;7.50;;;4.78;;
73264;SDS011;61493;51.008;14.088;2022-10-15T10:13:45;7.00;;;4.70;;
73264;SDS011;61493;51.008;14.088;2022-10-15T10:16:19;6.05;;;4.38;;
73264;SDS011;61493;51.008;14.088;2022-10-15T10:21:37;4.55;;;3.40;;
73264;SDS011;61493;51.008;14.088;2022-10-15T10:24:19;5.40;;;3.03;;
73264;SDS011;61493;51.008;14.088;2022-10-15T10:26:52;3.50;;;2.65;;
73264;SDS011;61493;51.008;14.088;2022-10-15T10:29:18;3.45;;;2.58;;
73264;SDS011;61493;51.008;14.088;2022-10-15T10:31:45;4.93;;;3.30;;
73264;SDS011;61493;51.008;14.088;2022-10-15T10:34:15;3.78;;;2.83;;
73264;SDS011;61493;51.008;14.088;2022-10-15T10:36:55;4.18;;;2.83;;
73264;SDS011;61493;51.008;14.088;2022-10-15T10:39:28;4.72;;;2.92;;
73264;SDS011;61493;51.008;14.088;2022-10-15T10:41:56;3.40;;;2.63;;
73264;SDS011;61493;51.008;14.088;2022-10-15T10:50:03;3.97;;;3.03;;
73264;SDS011;61493;51.008;14.088;2022-10-15T10:52:55;3.67;;;2.85;;
73264;SDS011;61493;51.008;14.088;2022-10-15T10:55:22;4.00;;;2.85;;
73264;SDS011;61493;51.008;14.088;2022-10-15T10:57:54;6.72;;;3.08;;
73264;SDS011;61493;51.008;14.088;2022-10-15T11:00:41;4.40;;;3.47;;
73264;SDS011;61493;51.008;14.088;2022-10-15T11:12:00;5.20;;;3.03;;
73264;SDS011;61493;51.008;14.088;2022-10-15T11:42:56;5.63;;;3.28;;
73264;SDS011;61493;51.008;14.088;2022-10-15T11:45:30;6.13;;;3.60;;
73264;SDS011;61493;51.008;14.088;2022-10-15T11:48:21;5.35;;;3.38;;
73264;SDS011;61493;51.008;14.088;2022-10-15T11:51:01;6.10;;;4.00;;
73264;SDS011;61493;51.008;14.088;2022-10-15T12:02:14;5.68;;;3.65;;
73264;SDS011;61493;51.008;14.088;2022-10-15T12:04:46;4.60;;;3.20;;
73264;SDS011;61493;51.008;14.088;2022-10-15T12:07:27;9.32;;;3.53;;
73264;SDS011;61493;51.008;14.088;2022-10-15T12:10:00;5.20;;;3.42;;
73264;SDS011;61493;51.008;14.088;2022-10-15T12:12:55;5.35;;;3.47;;
73264;SDS011;61493;51.008;14.088;2022-10-15T12:18:25;6.07;;;3.42;;
73264;SDS011;61493;51.008;14.088;2022-10-15T12:20:54;7.00;;;4.13;;
73264;SDS011;61493;51.008;14.088;2022-10-15T12:23:23;5.07;;;3.50;;
73264;SDS011;61493;51.008;14.088;2022-10-15T12:28:56;9.00;;;5.22;;
73264;SDS011;61493;51.008;14.088;2022-10-15T12:31:23;8.63;;;4.93;;
73264;SDS011;61493;51.008;14.088;2022-10-15T12:33:50;8.60;;;4.05;;
73264;SDS011;61493;51.008;14.088;2022-10-15T12:36:24;6.90;;;4.65;;
73264;SDS011;61493;51.008;14.088;2022-10-15T12:47:03;5.45;;;3.88;;
73264;SDS011;61493;51.008;14.088;2022-10-15T12:51:57;5.68;;;4.20;;
73264;SDS011;61493;51.008;14.088;2022-10-15T12:54:34;8.02;;;4.25;;
73264;SDS011;61493;51.008;14.088;2022-10-15T13:00:44;5.78;;;3.97;;
73264;SDS011;61493;51.008;14.088;2022-10-15T13:02:50;7.55;;;4.60;;
73264;SDS011;61493;51.008;14.088;2022-10-15T13:05:28;7.00;;;4.53;;
73264;SDS011;61493;51.008;14.088;2022-10-15T13:07:59;6.88;;;4.40;;
73264;SDS011;61493;51.008;14.088;2022-10-15T13:10:28;6.82;;;4.45;;
73264;SDS011;61493;51.008;14.088;2022-10-15T13:12:57;8.40;;;4.97;;
73264;SDS011;61493;51.008;14.088;2022-10-15T13:15:27;6.97;;;4.63;;
73264;SDS011;61493;51.008;14.088;2022-10-15T13:17:57;8.98;;;5.72;;
73264;SDS011;61493;51.008;14.088;2022-10-15T13:20:32;7.75;;;5.03;;
73264;SDS011;61493;51.008;14.088;2022-10-15T13:23:17;8.75;;;6.30;;
73264;SDS011;61493;51.008;14.088;2022-10-15T13:26:09;8.25;;;5.82;;
73264;SDS011;61493;51.008;14.088;2022-10-15T13:28:40;8.60;;;5.10;;
73264;SDS011;61493;51.008;14.088;2022-10-15T13:34:04;9.20;;;5.78;;
73264;SDS011;61493;51.008;14.088;2022-10-15T13:36:35;9.55;;;6.05;;
73264;SDS011;61493;51.008;14.088;2022-10-15T13:39:34;8.82;;;5.60;;
73264;SDS011;61493;51.008;14.088;2022-10-15T13:42:02;9.07;;;5.53;;
73264;SDS011;61493;51.008;14.088;2022-10-15T13:44:31;9.95;;;6.43;;
73264;SDS011;61493;51.008;14.088;2022-10-15T13:46:57;6.88;;;5.50;;
73264;SDS011;61493;51.008;14.088;2022-10-15T13:49:22;8.68;;;5.35;;
73264;SDS011;61493;51.008;14.088;2022-10-15T13:51:49;12.38;;;6.80;;
73264;SDS011;61493;51.008;14.088;2022-10-15T13:54:24;12.90;;;5.45;;
73264;SDS011;61493;51.008;14.088;2022-10-15T13:56:57;8.07;;;4.80;;
73264;SDS011;61493;51.008;14.088;2022-10-15T14:02:42;8.20;;;5.05;;
73264;SDS011;61493;51.008;14.088;2022-10-15T14:05:14;8.38;;;5.15;;
73264;SDS011;61493;51.008;14.088;2022-10-15T14:07:40;8.67;;;5.13;;
73264;SDS011;61493;51.008;14.088;2022-10-15T14:10:07;8.70;;;5.00;;
73264;SDS011;61493;51.008;14.088;2022-10-15T14:12:33;8.23;;;4.97;;
73264;SDS011;61493;51.008;14.088;2022-10-15T14:15:36;9.00;;;5.72;;
73264;SDS011;61493;51.008;14.088;2022-10-15T14:18:02;8.98;;;5.68;;
73264;SDS011;61493;51.008;14.088;2022-10-15T14:20:28;10.43;;;5.85;;
73264;SDS011;61493;51.008;14.088;2022-10-15T14:22:53;9.10;;;5.57;;
73264;SDS011;61493;51.008;14.088;2022-10-15T14:25:22;8.55;;;5.25;;
73264;SDS011;61493;51.008;14.088;2022-10-15T14:27:49;9.63;;;6.07;;
73264;SDS011;61493;51.008;14.088;2022-10-15T14:30:19;12.40;;;5.35;;
73264;SDS011;61493;51.008;14.088;2022-10-15T14:32:50;8.90;;;5.00;;
73264;SDS011;61493;51.008;14.088;2022-10-15T14:35:32;9.43;;;5.95;;
73264;SDS011;61493;51.008;14.088;2022-10-15T14:38:04;8.43;;;5.15;;
73264;SDS011;61493;51.008;14.088;2022-10-15T14:40:39;9.02;;;5.18;;
73264;SDS011;61493;51.008;14.088;2022-10-15T14:43:06;7.68;;;4.65;;
73264;SDS011;61493;51.008;14.088;2022-10-15T14:45:40;8.45;;;5.32;;
73264;SDS011;61493;51.008;14.088;2022-10-15T14:48:19;10.13;;;6.85;;
73264;SDS011;61493;51.008;14.088;2022-10-15T14:50:50;9.57;;;6.93;;
73264;SDS011;61493;51.008;14.088;2022-10-15T14:53:20;10.57;;;6.03;;
73264;SDS011;61493;51.008;14.088;2022-10-15T14:55:50;11.38;;;5.38;;
73264;SDS011;61493;51.008;14.088;2022-10-15T14:58:18;8.27;;;5.05;;
73264;SDS011;61493;51.008;14.088;2022-10-15T15:00:53;8.32;;;5.30;;
73264;SDS011;61493;51.008;14.088;2022-10-15T15:03:27;9.27;;;5.43;;
73264;SDS011;61493;51.008;14.088;2022-10-15T15:05:55;11.23;;;5.93;;
73264;SDS011;61493;51.008;14.088;2022-10-15T15:08:22;10.70;;;6.70;;
73264;SDS011;61493;51.008;14.088;2022-10-15T15:10:48;9.13;;;6.35;;
73264;SDS011;61493;51.008;14.088;2022-10-15T15:13:17;12.00;;;6.47;;
73264;SDS011;61493;51.008;14.088;2022-10-15T15:15:45;10.40;;;6.45;;
73264;SDS011;61493;51.008;14.088;2022-10-15T15:18:11;9.10;;;5.82;;
73264;SDS011;61493;51.008;14.088;2022-10-15T15:20:37;10.32;;;6.85;;
73264;SDS011;61493;51.008;14.088;2022-10-15T15:23:04;10.75;;;6.95;;
73264;SDS011;61493;51.008;14.088;2022-10-15T15:25:31;14.73;;;8.57;;
73264;SDS011;61493;51.008;14.088;2022-10-15T15:27:58;17.23;;;9.52;;
73264;SDS011;61493;51.008;14.088;2022-10-15T15:30:25;16.92;;;9.80;;
73264;SDS011;61493;51.008;14.088;2022-10-15T15:32:51;15.93;;;8.93;;
73264;SDS011;61493;51.008;14.088;2022-10-15T15:35:22;14.77;;;8.10;;
73264;SDS011;61493;51.008;14.088;2022-10-15T15:37:50;13.70;;;8.45;;
73264;SDS011;61493;51.008;14.088;2022-10-15T15:40:16;13.10;;;8.52;;
73264;SDS011;61493;51.008;14.088;2022-10-15T15:42:41;14.93;;;8.70;;
73264;SDS011;61493;51.008;14.088;2022-10-15T15:45:23;14.32;;;8.95;;
73264;SDS011;61493;51.008;14.088;2022-10-15T15:47:50;14.27;;;8.43;;
73264;SDS011;61493;51.008;14.088;2022-10-15T15:50:16;15.85;;;9.15;;
73264;SDS011;61493;51.008;14.088;2022-10-15T15:52:42;14.43;;;9.23;;
73264;SDS011;61493;51.008;14.088;2022-10-15T15:55:08;17.23;;;10.38;;
73264;SDS011;61493;51.008;14.088;2022-10-15T15:57:34;15.90;;;9.80;;
73264;SDS011;61493;51.008;14.088;2022-10-15T15:59:59;15.23;;;9.13;;
73264;SDS011;61493;51.008;14.088;2022-10-15T16:02:25;14.23;;;9.18;;
73264;SDS011;61493;51.008;14.088;2022-10-15T16:04:50;15.65;;;8.95;;
73264;SDS011;61493;51.008;14.088;2022-10-15T16:07:15;14.88;;;9.20;;
73264;SDS011;61493;51.008;14.088;2022-10-15T16:09:41;16.75;;;9.50;;
73264;SDS011;61493;51.008;14.088;2022-10-15T16:12:06;15.98;;;9.55;;
73264;SDS011;61493;51.008;14.088;2022-10-15T16:14:34;19.00;;;10.45;;
73264;SDS011;61493;51.008;14.088;2022-10-15T16:16:59;17.33;;;11.15;;
73264;SDS011;61493;51.008;14.088;2022-10-15T16:19:24;17.75;;;10.30;;
73264;SDS011;61493;51.008;14.088;2022-10-15T16:21:50;17.85;;;10.35;;
73264;SDS011;61493;51.008;14.088;2022-10-15T16:24:18;17.42;;;10.55;;
73264;SDS011;61493;51.008;14.088;2022-10-15T16:26:44;19.85;;;11.07;;
73264;SDS011;61493;51.008;14.088;2022-10-15T16:29:09;17.55;;;9.88;;
73264;SDS011;61493;51.008;14.088;2022-10-15T16:31:34;17.30;;;10.48;;
73264;SDS011;61493;51.008;14.088;2022-10-15T16:34:04;17.40;;;11.40;;
73264;SDS011;61493;51.008;14.088;2022-10-15T16:36:30;23.85;;;10.10;;
73264;SDS011;61493;51.008;14.088;2022-10-15T16:38:56;21.80;;;10.68;;
73264;SDS011;61493;51.008;14.088;2022-10-15T16:41:22;16.15;;;10.10;;
73264;SDS011;61493;51.008;14.088;2022-10-15T16:43:47;19.13;;;11.40;;
73264;SDS011;61493;51.008;14.088;2022-10-15T16:46:13;20.50;;;11.40;;
73264;SDS011;61493;51.008;14.088;2022-10-15T16:48:40;20.35;;;11.48;;
73264;SDS011;61493;51.008;14.088;2022-10-15T16:51:10;19.50;;;12.20;;
73264;SDS011;61493;51.008;14.088;2022-10-15T16:53:42;21.65;;;13.38;;
73264;SDS011;61493;51.008;14.088;2022-10-15T16:56:13;23.00;;;12.20;;
73264;SDS011;61493;51.008;14.088;2022-10-15T16:58:41;22.63;;;12.32;;